Time;durP1;ratioP1;P1;durP2;ratioP2;P2;SDS_P1;SDS_P2;PMS_P1;PMS_P2;Temp;Humidity;BMP_temperature;BMP_pressure;BME280_temperature;BME280_humidity;BME280_pressure;Samples;Min_cycle;Max_cycle;Signal;HPM_P1;HPM_P2
2021/01/18 00:01:31;;;;;;;16.55;11.80;;;0.80;99.90;;;;;;6160765;23;20009;-87
2021/01/18 00:03:57;;;;;;;17.65;11.88;;;0.70;99.90;;;;;;6161832;23;20009;-87
2021/01/18 00:06:23;;;;;;;13.68;10.48;;;0.80;99.90;;;;;;6172469;23;20016;-87
2021/01/18 00:08:49;;;;;;;14.77;10.32;;;0.80;99.90;;;;;;6183447;23;20043;-87
2021/01/18 00:11:16;;;;;;;15.02;10.55;;;0.80;99.90;;;;;;6195115;23;20401;-87
2021/01/18 00:13:45;;;;;;;13.15;9.48;;;0.80;99.90;;;;;;6163888;23;20005;-87
2021/01/18 00:16:18;;;;;;;13.77;8.88;;;0.90;99.90;;;;;;6188733;23;19997;-86
2021/01/18 00:18:44;;;;;;;12.88;9.15;;;0.90;99.90;;;;;;6161850;23;20009;-87
2021/01/18 00:21:10;;;;;;;12.57;8.95;;;0.90;99.90;;;;;;6163284;23;20005;-87
2021/01/18 00:23:39;;;;;;;12.07;8.70;;;0.90;99.90;;;;;;6173437;23;20012;-86
2021/01/18 00:26:06;;;;;;;12.48;8.45;;;0.90;99.90;;;;;;6184759;23;20068;-87
2021/01/18 00:28:32;;;;;;;10.63;7.80;;;0.90;99.90;;;;;;6177139;23;20040;-87
2021/01/18 00:30:59;;;;;;;12.70;8.50;;;0.90;99.90;;;;;;6189220;23;20028;-87
2021/01/18 00:33:28;;;;;;;11.20;8.15;;;1.00;99.90;;;;;;6162096;23;20011;-87
2021/01/18 00:35:54;;;;;;;8.98;7.50;;;1.00;99.90;;;;;;6162291;23;20001;-87
2021/01/18 00:38:20;;;;;;;7.43;5.88;;;1.10;99.90;;;;;;6188313;23;19993;-87
2021/01/18 00:40:45;;;;;;;10.00;7.20;;;1.00;99.90;;;;;;6161799;23;20028;-86
2021/01/18 00:43:11;;;;;;;11.07;7.60;;;1.00;99.90;;;;;;6161626;23;20009;-87
2021/01/18 00:45:37;;;;;;;8.75;6.55;;;1.10;99.90;;;;;;6144520;23;20040;-87
2021/01/18 00:48:03;;;;;;;9.90;8.15;;;1.00;99.90;;;;;;6187038;23;20057;-87
2021/01/18 00:50:30;;;;;;;8.27;7.05;;;1.00;99.90;;;;;;6186609;23;20044;-88
2021/01/18 00:52:57;;;;;;;9.25;7.00;;;1.00;99.90;;;;;;6187414;23;20028;-87
2021/01/18 00:55:24;;;;;;;9.38;7.28;;;1.10;99.90;;;;;;6187730;23;20013;-87
2021/01/18 00:57:50;;;;;;;9.85;6.90;;;1.00;99.90;;;;;;6185775;23;20041;-87
2021/01/18 01:00:17;;;;;;;10.75;7.20;;;1.00;99.90;;;;;;6182013;23;19997;-88
2021/01/18 01:02:44;;;;;;;8.82;6.82;;;1.00;99.90;;;;;;6187657;23;20001;-88
2021/01/18 01:05:12;;;;;;;10.25;7.38;;;1.10;99.90;;;;;;6213990;23;20029;-88
2021/01/18 01:07:46;;;;;;;9.27;6.88;;;1.10;99.90;;;;;;6188232;23;20017;-88
2021/01/18 01:10:20;;;;;;;8.88;7.18;;;1.10;99.90;;;;;;6169237;23;20017;-88
2021/01/18 01:13:39;;;;;;;9.77;6.88;;;1.10;99.90;;;;;;6165614;23;20005;-88
2021/01/18 01:16:14;;;;;;;9.82;6.15;;;1.10;99.90;;;;;;6165364;23;20028;-87
2021/01/18 01:19:13;;;;;;;7.85;6.05;;;1.10;99.90;;;;;;6168526;23;20085;-86
2021/01/18 01:22:10;;;;;;;8.48;6.38;;;1.10;99.90;;;;;;6080132;23;20067;-88
2021/01/18 01:24:39;;;;;;;9.50;7.05;;;1.10;99.90;;;;;;6083175;23;20085;-86
2021/01/18 01:27:05;;;;;;;9.60;6.70;;;1.10;99.90;;;;;;6156028;23;20332;-87
2021/01/18 01:29:31;;;;;;;8.15;5.88;;;1.10;99.90;;;;;;6188491;23;20036;-87
2021/01/18 01:31:57;;;;;;;9.90;6.75;;;1.10;99.90;;;;;;6164423;23;20314;-87
2021/01/18 01:34:22;;;;;;;9.07;6.57;;;1.10;99.90;;;;;;6164168;23;20008;-87
2021/01/18 01:36:48;;;;;;;9.48;7.10;;;1.10;99.90;;;;;;6161740;23;20032;-87
2021/01/18 01:39:13;;;;;;;8.13;6.20;;;1.10;99.90;;;;;;6160669;23;20005;-87
2021/01/18 01:41:39;;;;;;;9.02;6.47;;;1.10;99.90;;;;;;6207898;23;20005;-86
2021/01/18 01:44:05;;;;;;;11.20;7.75;;;1.10;99.90;;;;;;6167371;23;20012;-86
2021/01/18 01:46:31;;;;;;;10.93;8.13;;;1.10;99.90;;;;;;6211634;23;19985;-87
2021/01/18 01:48:58;;;;;;;10.30;7.35;;;1.00;99.90;;;;;;6205304;23;20522;-87
2021/01/18 01:51:26;;;;;;;10.50;7.63;;;1.00;99.90;;;;;;6187002;23;20433;-87
2021/01/18 01:53:52;;;;;;;11.02;8.13;;;1.10;99.90;;;;;;6159887;23;20008;-87
2021/01/18 01:56:20;;;;;;;10.68;7.88;;;1.00;99.90;;;;;;6160141;23;20005;-87
2021/01/18 01:58:46;;;;;;;15.13;8.80;;;1.10;99.90;;;;;;6128177;23;20005;-87
2021/01/18 02:01:17;;;;;;;14.65;8.82;;;1.00;99.90;;;;;;6181261;23;20029;-88
2021/01/18 02:03:46;;;;;;;11.52;8.48;;;1.00;99.90;;;;;;6186217;23;20013;-87
2021/01/18 02:06:12;;;;;;;20.45;9.88;;;1.00;99.90;;;;;;6186920;23;20036;-87
2021/01/18 02:08:38;;;;;;;14.77;9.43;;;1.00;99.90;;;;;;6159656;23;20405;-87
2021/01/18 02:11:05;;;;;;;15.55;9.52;;;1.00;99.90;;;;;;6187076;23;20001;-87
2021/01/18 02:13:45;;;;;;;18.23;10.32;;;0.90;99.90;;;;;;6186461;23;20013;-87
2021/01/18 02:16:29;;;;;;;15.10;9.88;;;0.90;99.90;;;;;;6160037;23;20005;-87
2021/01/18 02:19:22;;;;;;;15.10;8.63;;;1.00;99.90;;;;;;6188830;23;20001;-87
2021/01/18 02:22:03;;;;;;;;;;;1.10;99.90;;;;;;6182399;23;20024;-87
2021/01/18 02:24:29;;;;;;;13.68;8.23;;;1.10;99.90;;;;;;6164726;23;19900;-87
2021/01/18 02:27:32;;;;;;;12.45;8.27;;;1.10;99.90;;;;;;6160926;23;20013;-87
2021/01/18 02:30:13;;;;;;;;;;;1.10;99.90;;;;;;6187491;23;20140;-86
2021/01/18 02:32:50;;;;;;;8.93;6.93;;;1.10;99.90;;;;;;6187213;23;19907;-87
2021/01/18 02:35:35;;;;;;;11.32;7.18;;;1.10;99.90;;;;;;6160419;23;20001;-86
2021/01/18 02:38:12;;;;;;;10.70;7.45;;;1.10;99.90;;;;;;6161880;23;20075;-87
2021/01/18 02:41:02;;;;;;;12.82;8.57;;;1.10;99.90;;;;;;6169819;23;20028;-87
2021/01/18 02:43:41;;;;;;;12.13;7.82;;;1.10;99.90;;;;;;6163198;23;20005;-87
2021/01/18 02:46:09;;;;;;;12.18;7.65;;;1.10;99.90;;;;;;6161180;23;20009;-86
2021/01/18 02:48:37;;;;;;;12.45;7.43;;;1.10;99.90;;;;;;6160702;23;20492;-85
2021/01/18 02:51:05;;;;;;;10.45;8.30;;;1.10;99.90;;;;;;6187657;23;20008;-86
2021/01/18 02:53:31;;;;;;;14.18;8.63;;;1.20;99.90;;;;;;6187510;23;19999;-86
2021/01/18 02:55:56;;;;;;;13.60;8.80;;;1.10;99.90;;;;;;6209348;23;20001;-86
2021/01/18 02:58:27;;;;;;;11.85;7.45;;;1.10;99.90;;;;;;6176629;23;20082;-86
2021/01/18 03:01:15;;;;;;;9.95;6.95;;;1.10;99.90;;;;;;6160742;23;20096;-86
2021/01/18 03:04:06;;;;;;;15.68;9.48;;;1.10;99.90;;;;;;6186705;23;20005;-86
2021/01/18 03:06:44;;;;;;;14.85;9.93;;;1.10;99.90;;;;;;6187631;23;20392;-86
2021/01/18 03:09:36;;;;;;;14.80;8.38;;;1.00;99.90;;;;;;6161756;23;20009;-86
2021/01/18 03:12:08;;;;;;;14.23;9.40;;;1.10;99.90;;;;;;6162013;23;20045;-87
2021/01/18 03:14:41;;;;;;;17.25;9.38;;;1.00;99.90;;;;;;6188964;23;20310;-87
2021/01/18 03:17:13;;;;;;;14.05;9.45;;;1.10;99.90;;;;;;6163513;23;20028;-87
2021/01/18 03:19:44;;;;;;;20.70;11.52;;;1.10;99.90;;;;;;6162600;23;20005;-86
2021/01/18 03:22:20;;;;;;;18.88;10.95;;;1.10;99.90;;;;;;6163103;23;20005;-87
2021/01/18 03:24:46;;;;;;;19.23;11.15;;;1.00;99.90;;;;;;6173244;23;20012;-86
2021/01/18 03:27:17;;;;;;;20.13;12.18;;;1.00;99.90;;;;;;6162111;23;20005;-86
2021/01/18 03:29:43;;;;;;;17.83;11.40;;;1.00;99.90;;;;;;6161737;23;20001;-87
2021/01/18 03:32:09;;;;;;;20.88;12.05;;;1.00;99.90;;;;;;6162854;23;20024;-87
2021/01/18 03:34:36;;;;;;;21.92;11.00;;;1.10;99.90;;;;;;6162633;23;20001;-87
2021/01/18 03:37:03;;;;;;;19.25;11.30;;;1.10;99.90;;;;;;6189059;23;20031;-87
2021/01/18 03:39:30;;;;;;;20.95;11.60;;;1.10;99.90;;;;;;6162907;23;20373;-87
2021/01/18 03:41:59;;;;;;;20.30;12.00;;;1.00;99.90;;;;;;6163660;23;20464;-86
2021/01/18 03:44:24;;;;;;;17.25;11.15;;;1.10;99.90;;;;;;6164989;23;20056;-87
2021/01/18 03:46:50;;;;;;;22.50;10.82;;;1.10;99.90;;;;;;6167245;23;20325;-87
2021/01/18 03:49:16;;;;;;;21.58;11.90;;;1.10;99.90;;;;;;6208351;23;20012;-87
2021/01/18 03:51:41;;;;;;;24.70;11.48;;;1.10;99.90;;;;;;6187551;23;20009;-87
2021/01/18 03:54:08;;;;;;;13.90;9.40;;;1.00;99.90;;;;;;6188666;23;19993;-88
2021/01/18 03:56:43;;;;;;;24.02;11.85;;;1.00;99.90;;;;;;6189035;23;20004;-87
2021/01/18 03:59:09;;;;;;;19.92;10.95;;;1.10;99.90;;;;;;6164332;23;20013;-87
2021/01/18 04:01:39;;;;;;;27.38;10.05;;;1.10;99.90;;;;;;6191305;23;20021;-80
2021/01/18 04:04:06;;;;;;;23.90;11.40;;;1.10;99.90;;;;;;6221347;23;19997;-80
2021/01/18 04:06:36;;;;;;;16.33;9.02;;;1.10;99.90;;;;;;6220069;23;20047;-80
2021/01/18 04:09:03;;;;;;;19.77;10.13;;;1.10;99.90;;;;;;6222013;23;20020;-81
2021/01/18 04:11:29;;;;;;;24.90;12.02;;;1.10;99.90;;;;;;6224053;23;20016;-82
2021/01/18 04:13:55;;;;;;;18.63;10.07;;;1.10;99.90;;;;;;6235200;23;20444;-82
2021/01/18 04:16:20;;;;;;;11.02;6.65;;;1.10;99.90;;;;;;6215484;23;20052;-82
2021/01/18 04:18:46;;;;;;;16.73;9.80;;;1.20;99.90;;;;;;6189052;23;20051;-80
2021/01/18 04:21:14;;;;;;;11.75;7.93;;;1.10;99.90;;;;;;6215789;23;20079;-80
2021/01/18 04:23:40;;;;;;;17.15;8.85;;;1.10;99.90;;;;;;6215924;23;20011;-80
2021/01/18 04:26:06;;;;;;;16.75;9.93;;;1.20;99.90;;;;;;6215834;23;20416;-80
2021/01/18 04:28:35;;;;;;;16.77;10.05;;;1.20;99.90;;;;;;6194367;23;20036;-80
2021/01/18 04:31:00;;;;;;;15.40;7.15;;;1.20;99.90;;;;;;6212744;23;20451;-81
2021/01/18 04:33:26;;;;;;;12.98;8.77;;;1.30;99.90;;;;;;6237840;23;20105;-81
2021/01/18 04:35:55;;;;;;;12.90;7.88;;;1.30;99.90;;;;;;6211733;23;20047;-81
2021/01/18 04:38:21;;;;;;;11.20;6.95;;;1.30;99.90;;;;;;6238681;23;19996;-82
2021/01/18 04:40:46;;;;;;;15.38;8.45;;;1.30;99.90;;;;;;6233875;23;19988;-81
2021/01/18 04:43:15;;;;;;;16.30;7.43;;;1.30;99.90;;;;;;6225205;23;20000;-81
2021/01/18 04:45:42;;;;;;;15.93;7.38;;;1.30;99.90;;;;;;6207458;23;20008;-82
2021/01/18 04:48:08;;;;;;;10.00;6.75;;;1.30;99.90;;;;;;6230353;23;20391;-81
2021/01/18 04:50:34;;;;;;;10.95;6.72;;;1.30;99.90;;;;;;6221261;23;20005;-81
2021/01/18 04:53:01;;;;;;;9.50;6.57;;;1.30;99.90;;;;;;6195063;23;20031;-80
2021/01/18 04:55:42;;;;;;;9.95;6.72;;;1.30;99.90;;;;;;6192457;23;20080;-80
2021/01/18 04:58:16;;;;;;;10.85;6.15;;;1.30;99.90;;;;;;6191811;23;20005;-80
2021/01/18 05:00:49;;;;;;;12.55;6.40;;;1.20;99.90;;;;;;6194099;23;20436;-79
2021/01/18 05:03:22;;;;;;;9.10;5.80;;;1.20;99.90;;;;;;6192363;23;20059;-79
2021/01/18 05:05:53;;;;;;;10.13;6.70;;;1.20;99.90;;;;;;6217198;23;20051;-84
2021/01/18 05:08:50;;;;;;;14.30;7.00;;;1.20;99.90;;;;;;6191619;23;20023;-82
2021/01/18 05:11:16;;;;;;;14.10;6.35;;;1.10;99.90;;;;;;6219716;23;20055;-83
2021/01/18 05:13:45;;;;;;;10.80;6.22;;;1.10;99.90;;;;;;6221723;23;20056;-82
2021/01/18 05:16:11;;;;;;;10.98;6.60;;;1.10;99.90;;;;;;6220574;23;20007;-81
2021/01/18 05:18:38;;;;;;;13.45;6.85;;;1.10;99.90;;;;;;6191644;23;20001;-80
2021/01/18 05:21:11;;;;;;;14.65;6.70;;;1.10;99.90;;;;;;6189932;23;20035;-80
2021/01/18 05:23:40;;;;;;;11.75;6.80;;;1.00;99.90;;;;;;6217107;23;20011;-80
2021/01/18 05:26:19;;;;;;;11.07;6.40;;;1.00;99.90;;;;;;6190093;23;20029;-81
2021/01/18 05:28:46;;;;;;;12.57;6.55;;;1.00;99.90;;;;;;6217612;23;20077;-81
2021/01/18 05:31:30;;;;;;;9.57;6.45;;;1.10;99.90;;;;;;6216518;23;20056;-80
2021/01/18 05:34:25;;;;;;;10.10;6.50;;;1.10;99.90;;;;;;6189676;23;20004;-82
2021/01/18 05:36:50;;;;;;;10.95;5.90;;;1.10;99.90;;;;;;6188155;23;20091;-83
2021/01/18 05:39:20;;;;;;;13.93;6.22;;;1.10;99.90;;;;;;6216943;23;20312;-81
2021/01/18 05:41:53;;;;;;;11.35;6.43;;;1.10;99.90;;;;;;6216785;23;20000;-83
2021/01/18 05:44:20;;;;;;;9.70;6.30;;;1.10;99.90;;;;;;6216242;23;20004;-82
2021/01/18 05:46:48;;;;;;;13.30;6.90;;;1.20;99.90;;;;;;6190746;23;20000;-81
2021/01/18 05:49:19;;;;;;;10.10;5.75;;;1.20;99.90;;;;;;6216556;23;20455;-81
2021/01/18 05:51:53;;;;;;;11.43;6.13;;;1.20;99.90;;;;;;6191665;23;20017;-86
2021/01/18 05:54:26;;;;;;;8.45;5.63;;;1.20;99.90;;;;;;6191689;23;20000;-82
2021/01/18 05:57:01;;;;;;;10.55;6.45;;;1.30;99.90;;;;;;6196466;23;20059;-85
2021/01/18 05:59:27;;;;;;;11.93;6.32;;;1.30;99.90;;;;;;6212144;23;20001;-88
2021/01/18 06:01:54;;;;;;;9.10;6.00;;;1.30;99.90;;;;;;6213423;23;20039;-83
2021/01/18 06:04:27;;;;;;;14.50;5.78;;;1.30;99.90;;;;;;6212687;23;20020;-83
2021/01/18 06:06:55;;;;;;;9.30;5.70;;;1.30;99.90;;;;;;6219246;23;20020;-83
2021/01/18 06:09:24;;;;;;;9.38;6.18;;;1.40;99.90;;;;;;6192495;23;20011;-83
2021/01/18 06:11:51;;;;;;;11.68;6.95;;;1.30;99.90;;;;;;6167076;23;20080;-83
2021/01/18 06:14:19;;;;;;;8.63;5.03;;;1.30;99.90;;;;;;6216168;23;20008;-83
2021/01/18 06:16:49;;;;;;;12.13;6.55;;;1.40;99.90;;;;;;6190691;23;20001;-83
2021/01/18 06:19:22;;;;;;;14.88;6.43;;;1.40;99.90;;;;;;6165965;23;20009;-83
2021/01/18 06:21:49;;;;;;;11.50;6.03;;;1.40;99.90;;;;;;6191688;23;20008;-82
2021/01/18 06:24:21;;;;;;;9.65;5.93;;;1.30;99.90;;;;;;6168005;23;20008;-82
2021/01/18 06:26:48;;;;;;;8.83;5.43;;;1.30;99.90;;;;;;6220372;23;20027;-82
2021/01/18 06:29:36;;;;;;;13.02;6.05;;;1.40;99.90;;;;;;6218387;23;20384;-82
2021/01/18 06:32:07;;;;;;;11.68;6.18;;;1.40;99.90;;;;;;6190980;23;20013;-83
2021/01/18 06:34:34;;;;;;;8.27;5.28;;;1.50;99.90;;;;;;6213699;23;20009;-82
2021/01/18 06:37:00;;;;;;;12.85;5.75;;;1.50;99.90;;;;;;6219419;23;20000;-80
2021/01/18 06:39:28;;;;;;;12.07;6.05;;;1.50;99.90;;;;;;6193083;23;20004;-81
2021/01/18 06:42:02;;;;;;;14.38;6.20;;;1.50;99.90;;;;;;6194890;23;20004;-81
2021/01/18 06:44:34;;;;;;;12.90;6.38;;;1.40;99.90;;;;;;6223932;23;20001;-81
2021/01/18 06:47:00;;;;;;;10.32;5.68;;;1.40;99.90;;;;;;6194410;23;20001;-81
2021/01/18 06:49:27;;;;;;;11.07;5.45;;;1.40;99.90;;;;;;6195305;23;20000;-81
2021/01/18 06:52:00;;;;;;;11.52;6.72;;;1.40;99.90;;;;;;6214900;23;20085;-82
2021/01/18 06:54:31;;;;;;;9.00;5.53;;;1.40;99.90;;;;;;6193268;23;20011;-83
2021/01/18 06:57:27;;;;;;;10.00;6.35;;;1.40;99.90;;;;;;6198053;23;20005;-82
2021/01/18 06:59:57;;;;;;;11.55;6.63;;;1.40;99.90;;;;;;6194673;23;20371;-82
2021/01/18 07:02:52;;;;;;;12.18;7.28;;;1.40;99.90;;;;;;6197000;23;20035;-82
2021/01/18 07:05:26;;;;;;;9.98;6.50;;;1.40;99.90;;;;;;6195321;23;20331;-82
2021/01/18 07:07:56;;;;;;;9.57;5.90;;;1.40;99.90;;;;;;6194945;23;20058;-82
2021/01/18 07:10:22;;;;;;;12.13;6.85;;;1.50;99.90;;;;;;6194916;23;20000;-82
2021/01/18 07:12:49;;;;;;;11.13;6.68;;;1.50;99.90;;;;;;6195845;23;20005;-82
2021/01/18 07:15:19;;;;;;;9.65;6.28;;;1.50;99.90;;;;;;6221871;23;20009;-82
2021/01/18 07:17:52;;;;;;;12.30;6.28;;;1.50;99.90;;;;;;6196038;23;20130;-82
2021/01/18 07:20:28;;;;;;;10.52;5.88;;;1.50;99.90;;;;;;6196071;23;20005;-82
2021/01/18 07:23:24;;;;;;;10.00;6.30;;;1.50;99.90;;;;;;6196324;23;20017;-82
2021/01/18 07:26:04;;;;;;;15.35;8.30;;;1.60;99.90;;;;;;6222518;23;20453;-82
2021/01/18 07:28:33;;;;;;;11.85;6.85;;;1.50;99.90;;;;;;6194516;23;20012;-82
2021/01/18 07:30:59;;;;;;;14.85;7.57;;;1.50;99.90;;;;;;6194310;23;20011;-82
2021/01/18 07:33:25;;;;;;;12.80;7.50;;;1.60;99.90;;;;;;6196388;23;20000;-82
2021/01/18 07:35:51;;;;;;;11.50;6.78;;;1.50;99.90;;;;;;6196263;23;20325;-82
2021/01/18 07:38:28;;;;;;;13.77;7.55;;;1.50;99.90;;;;;;6207004;23;20008;-81
2021/01/18 07:41:06;;;;;;;12.27;7.68;;;1.40;99.90;;;;;;6228524;23;20071;-82
2021/01/18 07:43:38;;;;;;;13.00;7.60;;;1.40;99.90;;;;;;6195197;23;20004;-82
2021/01/18 07:46:25;;;;;;;12.68;7.88;;;1.40;99.90;;;;;;6222445;23;20004;-82
2021/01/18 07:48:55;;;;;;;14.05;8.13;;;1.30;99.90;;;;;;6194845;23;20005;-82
2021/01/18 07:51:27;;;;;;;14.13;7.65;;;1.30;99.90;;;;;;6194679;23;20340;-82
2021/01/18 07:53:53;;;;;;;16.65;7.75;;;1.40;99.90;;;;;;6204879;23;20011;-82
2021/01/18 07:56:30;;;;;;;14.23;7.70;;;1.40;99.90;;;;;;6227498;23;20088;-82
2021/01/18 07:58:57;;;;;;;14.35;8.80;;;1.40;99.90;;;;;;6196853;23;20012;-82
2021/01/18 08:01:31;;;;;;;12.75;6.70;;;1.40;99.90;;;;;;6195758;23;20020;-82
2021/01/18 08:04:19;;;;;;;15.07;7.22;;;1.50;99.90;;;;;;6200229;23;20004;-82
2021/01/18 08:07:04;;;;;;;12.68;7.43;;;1.50;99.90;;;;;;6207038;23;20008;-81
2021/01/18 08:09:30;;;;;;;12.40;7.20;;;1.50;99.90;;;;;;6222481;23;20008;-82
2021/01/18 08:12:31;;;;;;;12.68;7.20;;;1.50;99.90;;;;;;6194712;23;20008;-81
2021/01/18 08:14:57;;;;;;;10.80;6.57;;;1.60;99.90;;;;;;6194440;23;20087;-82
2021/01/18 08:17:24;;;;;;;15.68;7.07;;;1.60;99.90;;;;;;6193859;23;20230;-82
2021/01/18 08:20:22;;;;;;;11.30;6.25;;;1.60;99.90;;;;;;6219462;23;20080;-82
2021/01/18 08:22:48;;;;;;;12.00;6.05;;;1.60;99.90;;;;;;6200579;23;20080;-82
2021/01/18 08:25:14;;;;;;;8.75;6.38;;;1.70;99.90;;;;;;6193141;23;20308;-82
2021/01/18 08:28:00;;;;;;;13.55;6.80;;;1.60;99.90;;;;;;6192311;23;20341;-81
2021/01/18 08:30:34;;;;;;;9.60;6.35;;;1.60;99.90;;;;;;6218302;23;20005;-81
2021/01/18 08:33:03;;;;;;;11.80;6.47;;;1.60;99.90;;;;;;6192372;23;20001;-82
2021/01/18 08:35:44;;;;;;;10.35;5.75;;;1.60;99.90;;;;;;6192406;23;20005;-83
2021/01/18 08:38:29;;;;;;;8.98;5.53;;;1.60;99.90;;;;;;6219793;23;19996;-80
2021/01/18 08:41:07;;;;;;;10.35;6.03;;;1.70;99.90;;;;;;6192741;23;20009;-82
2021/01/18 08:43:51;;;;;;;11.73;6.15;;;1.70;99.90;;;;;;6192103;23;20341;-81
2021/01/18 08:46:33;;;;;;;12.18;6.38;;;1.60;99.90;;;;;;6191945;23;20005;-81
2021/01/18 08:49:23;;;;;;;10.63;6.30;;;1.70;99.90;;;;;;6192923;23;20415;-82
2021/01/18 08:51:49;;;;;;;10.13;6.22;;;1.70;99.90;;;;;;6192156;23;20347;-80
2021/01/18 08:54:38;;;;;;;8.68;5.18;;;1.60;99.90;;;;;;6218472;23;20005;-81
2021/01/18 08:57:23;;;;;;;12.00;6.10;;;1.50;99.90;;;;;;6188875;23;20027;-81
2021/01/18 09:00:10;;;;;;;11.52;5.57;;;1.40;99.90;;;;;;6218062;23;20004;-82
2021/01/18 09:02:40;;;;;;;8.60;5.40;;;1.50;99.90;;;;;;6218032;23;20068;-81
2021/01/18 09:05:32;;;;;;;8.30;5.32;;;1.50;99.90;;;;;;6190823;23;20050;-81
2021/01/18 09:08:00;;;;;;;11.77;5.87;;;1.50;99.90;;;;;;6190669;23;20494;-80
2021/01/18 09:10:26;;;;;;;8.70;5.10;;;1.50;99.90;;;;;;6191301;23;20244;-82
2021/01/18 09:12:52;;;;;;;17.10;6.18;;;1.50;99.90;;;;;;6217725;23;20028;-82
2021/01/18 09:15:19;;;;;;;8.88;5.28;;;1.50;99.90;;;;;;6191912;23;20428;-80
2021/01/18 09:17:46;;;;;;;9.05;5.63;;;1.60;99.90;;;;;;6218280;23;20079;-80
2021/01/18 09:20:13;;;;;;;8.45;5.80;;;1.60;99.90;;;;;;6191417;23;20005;-81
2021/01/18 09:22:44;;;;;;;8.50;5.05;;;1.60;99.90;;;;;;6217495;23;20004;-81
2021/01/18 09:25:12;;;;;;;9.93;5.15;;;1.70;99.90;;;;;;6219148;23;20388;-80
2021/01/18 09:27:38;;;;;;;8.60;4.55;;;1.70;99.90;;;;;;6218506;23;20000;-81
2021/01/18 09:30:07;;;;;;;10.18;5.22;;;1.60;99.90;;;;;;6193079;23;20001;-82
2021/01/18 09:32:33;;;;;;;10.63;5.07;;;1.60;99.90;;;;;;6218916;23;20024;-81
2021/01/18 09:35:06;;;;;;;8.05;4.63;;;1.60;99.90;;;;;;6191739;23;20011;-81
2021/01/18 09:37:31;;;;;;;12.38;5.03;;;1.60;99.90;;;;;;6192258;23;20083;-81
2021/01/18 09:39:57;;;;;;;8.93;4.45;;;1.70;99.90;;;;;;6192088;23;20044;-81
2021/01/18 09:42:25;;;;;;;12.85;4.65;;;1.60;99.90;;;;;;6218686;23;20008;-82
2021/01/18 09:44:52;;;;;;;7.82;4.13;;;1.70;99.90;;;;;;6226275;23;20000;-82
2021/01/18 09:47:18;;;;;;;10.50;4.88;;;1.80;99.90;;;;;;6227709;23;20000;-82
2021/01/18 09:49:44;;;;;;;10.98;4.60;;;2.00;99.90;;;;;;6191709;23;20019;-81
2021/01/18 09:52:11;;;;;;;12.48;4.93;;;2.10;99.90;;;;;;6192221;23;20008;-81
2021/01/18 09:54:39;;;;;;;8.90;3.58;;;2.10;99.60;;;;;;6218862;23;20099;-81
2021/01/18 09:57:13;;;;;;;6.13;3.75;;;2.20;98.80;;;;;;6218464;23;20001;-81
2021/01/18 09:59:42;;;;;;;11.25;4.30;;;2.20;98.80;;;;;;6217798;23;20028;-81
2021/01/18 10:02:13;;;;;;;6.15;3.78;;;2.20;99.10;;;;;;6192336;23;20001;-80
2021/01/18 10:04:40;;;;;;;8.15;3.63;;;2.20;98.60;;;;;;6219278;23;19996;-82
2021/01/18 10:07:10;;;;;;;7.90;4.50;;;2.00;99.00;;;;;;6191715;23;20000;-82
2021/01/18 10:12:13;;;;;;;9.95;4.65;;;2.10;98.80;;;;;;6225290;22;20023;-83
2021/01/18 10:14:53;;;;;;;8.70;3.92;;;2.10;98.80;;;;;;6213820;23;20451;-84
2021/01/18 10:17:29;;;;;;;7.32;3.92;;;2.10;98.80;;;;;;6216575;22;20004;-84
2021/01/18 10:20:09;;;;;;;6.88;4.05;;;2.10;98.70;;;;;;6207934;23;20011;-84
2021/01/18 10:22:36;;;;;;;6.90;3.25;;;2.10;98.30;;;;;;6199363;23;20059;-85
2021/01/18 10:25:08;;;;;;;9.65;3.60;;;2.20;98.00;;;;;;6200574;23;20009;-85
2021/01/18 10:27:36;;;;;;;6.22;3.90;;;2.30;97.50;;;;;;6205216;23;20008;-85
2021/01/18 10:30:20;;;;;;;7.32;3.85;;;2.20;97.70;;;;;;6204402;23;20460;-86
2021/01/18 10:32:49;;;;;;;8.73;4.00;;;2.20;97.60;;;;;;6207483;23;20039;-86
2021/01/18 10:35:30;;;;;;;5.82;3.30;;;2.20;97.80;;;;;;6204040;23;20032;-85
2021/01/18 10:38:19;;;;;;;14.27;5.28;;;2.20;97.90;;;;;;6204426;23;20340;-85
2021/01/18 10:41:05;;;;;;;10.80;4.05;;;2.20;98.00;;;;;;6202965;23;20012;-85
2021/01/18 10:43:31;;;;;;;17.25;5.40;;;2.10;97.10;;;;;;6203189;23;20005;-86
2021/01/18 10:45:59;;;;;;;10.27;3.67;;;2.00;97.50;;;;;;6203936;23;20005;-85
2021/01/18 10:48:30;;;;;;;9.50;3.97;;;2.00;97.20;;;;;;6226882;23;20061;-84
2021/01/18 10:51:02;;;;;;;5.47;3.42;;;2.00;97.10;;;;;;6200580;23;20015;-83
2021/01/18 10:53:32;;;;;;;10.63;4.28;;;2.00;97.20;;;;;;6200370;23;19997;-83
2021/01/18 10:56:15;;;;;;;10.98;3.80;;;2.10;97.30;;;;;;6225919;23;19997;-84
2021/01/18 10:58:41;;;;;;;;;;;2.10;97.00;;;;;;6227017;23;20007;-83
2021/01/18 11:01:11;;;;;;;10.38;4.68;;;2.10;97.10;;;;;;6199924;23;20331;-83
2021/01/18 11:03:38;;;;;;;14.80;4.50;;;2.00;97.40;;;;;;6200703;23;20328;-82
2021/01/18 11:06:11;;;;;;;10.90;4.28;;;2.00;97.70;;;;;;6202424;23;20012;-84
2021/01/18 11:08:37;;;;;;;10.43;4.35;;;2.00;98.00;;;;;;6227130;23;20384;-82
2021/01/18 11:11:15;;;;;;;10.82;4.35;;;2.00;97.90;;;;;;6225912;23;20023;-82
2021/01/18 11:13:41;;;;;;;10.05;3.38;;;2.00;97.90;;;;;;6222965;23;20038;-81
2021/01/18 11:16:11;;;;;;;9.43;3.95;;;2.00;98.30;;;;;;6198556;23;20055;-81
2021/01/18 11:18:37;;;;;;;6.13;3.88;;;1.90;98.00;;;;;;6200014;23;20011;-82
2021/01/18 11:21:02;;;;;;;9.85;4.63;;;1.90;97.90;;;;;;6198571;23;20064;-83
2021/01/18 11:23:28;;;;;;;10.45;4.22;;;1.90;98.30;;;;;;6202030;23;20028;-84
2021/01/18 11:25:54;;;;;;;5.78;3.67;;;1.90;98.40;;;;;;6228409;23;20329;-83
2021/01/18 11:28:19;;;;;;;7.00;3.47;;;2.00;99.20;;;;;;6202334;23;20066;-83
2021/01/18 11:30:45;;;;;;;6.53;4.03;;;1.90;98.70;;;;;;6200858;23;20321;-83
2021/01/18 11:33:12;;;;;;;8.85;4.35;;;1.90;99.00;;;;;;6226777;23;20008;-84
2021/01/18 11:35:39;;;;;;;9.85;5.93;;;2.00;98.90;;;;;;6200924;23;20000;-84
2021/01/18 11:38:05;;;;;;;9.70;4.30;;;2.00;99.00;;;;;;6200849;23;20005;-84
2021/01/18 11:40:30;;;;;;;10.48;3.85;;;2.00;98.30;;;;;;6227651;23;20385;-83
2021/01/18 11:43:00;;;;;;;10.60;4.10;;;1.90;98.60;;;;;;6226511;23;20001;-84
2021/01/18 11:45:26;;;;;;;9.80;3.83;;;2.00;98.40;;;;;;6225409;23;20012;-83
2021/01/18 11:47:52;;;;;;;19.35;4.68;;;2.20;98.60;;;;;;6201042;23;20012;-83
2021/01/18 11:50:18;;;;;;;10.52;4.18;;;2.20;97.30;;;;;;6199399;23;20005;-83
2021/01/18 11:52:54;;;;;;;12.63;4.35;;;2.20;97.10;;;;;;6199354;23;20001;-83
2021/01/18 11:55:20;;;;;;;12.75;3.97;;;2.30;96.60;;;;;;6199979;23;20004;-84
2021/01/18 11:57:48;;;;;;;9.65;3.88;;;2.20;96.20;;;;;;6227391;23;20001;-83
2021/01/18 12:00:20;;;;;;;8.70;4.00;;;2.30;96.20;;;;;;6201586;23;20034;-84
2021/01/18 12:02:45;;;;;;;6.55;3.47;;;2.40;96.10;;;;;;6200790;23;20035;-84
2021/01/18 12:05:12;;;;;;;7.15;3.78;;;2.50;95.80;;;;;;6230915;23;20510;-84
2021/01/18 12:07:37;;;;;;;10.52;4.07;;;2.70;95.90;;;;;;6228054;23;20000;-84
2021/01/18 12:10:05;;;;;;;6.30;2.60;;;2.70;94.10;;;;;;6203059;23;20004;-84
2021/01/18 12:12:34;;;;;;;7.07;3.10;;;2.80;93.00;;;;;;6202003;23;20008;-83
2021/01/18 12:15:00;;;;;;;5.85;2.70;;;2.90;91.80;;;;;;6229963;23;20000;-82
2021/01/18 12:17:26;;;;;;;12.82;3.20;;;2.90;91.70;;;;;;6204625;23;20052;-84
2021/01/18 12:19:51;;;;;;;8.02;2.85;;;2.90;91.60;;;;;;6226265;23;20051;-83
2021/01/18 12:22:18;;;;;;;7.07;2.60;;;3.00;91.00;;;;;;6227730;23;20000;-83
2021/01/18 12:24:44;;;;;;;11.45;3.60;;;3.00;91.00;;;;;;6201003;23;20352;-83
2021/01/18 12:27:10;;;;;;;7.22;3.30;;;2.90;91.10;;;;;;6227051;23;20044;-80
2021/01/18 12:29:35;;;;;;;12.75;3.50;;;2.90;91.30;;;;;;6198461;23;20405;-83
2021/01/18 12:32:01;;;;;;;5.53;2.78;;;2.90;91.60;;;;;;6226074;23;20008;-82
2021/01/18 12:34:27;;;;;;;6.50;3.13;;;2.90;92.10;;;;;;6226261;23;20419;-83
2021/01/18 12:36:55;;;;;;;4.63;3.00;;;3.00;91.90;;;;;;6198758;23;20036;-83
2021/01/18 12:39:20;;;;;;;7.10;3.40;;;3.10;91.80;;;;;;6227008;23;20063;-83
2021/01/18 12:41:46;;;;;;;11.18;3.72;;;3.10;91.60;;;;;;6226870;23;20005;-83
2021/01/18 12:44:12;;;;;;;14.30;8.10;;;3.20;90.70;;;;;;6201718;23;20015;-83
2021/01/18 12:46:37;;;;;;;7.43;3.30;;;3.20;90.80;;;;;;6211153;23;19996;-81
2021/01/18 12:49:03;;;;;;;15.80;4.13;;;3.20;90.60;;;;;;6241352;23;20016;-83
2021/01/18 12:51:29;;;;;;;9.43;3.80;;;3.00;90.10;;;;;;6211920;23;20043;-82
2021/01/18 12:53:55;;;;;;;7.75;3.03;;;2.90;90.30;;;;;;6237379;23;19997;-82
2021/01/18 12:56:28;;;;;;;8.15;3.67;;;2.90;90.70;;;;;;6242365;22;20005;-81
2021/01/18 12:58:54;;;;;;;5.90;3.00;;;2.90;90.80;;;;;;6216365;23;19993;-81
2021/01/18 13:01:34;;;;;;;9.10;3.30;;;2.80;90.70;;;;;;6243049;22;19997;-81
2021/01/18 13:04:00;;;;;;;4.80;2.63;;;2.80;90.80;;;;;;6242587;22;20008;-81
2021/01/18 13:06:34;;;;;;;6.75;2.97;;;2.70;91.10;;;;;;6242244;22;20073;-80
2021/01/18 13:09:00;;;;;;;8.95;3.10;;;2.60;91.40;;;;;;6241164;22;20004;-78
2021/01/18 13:11:26;;;;;;;8.02;3.22;;;2.60;92.00;;;;;;6238527;22;20016;-82
2021/01/18 13:13:51;;;;;;;5.07;3.17;;;2.70;92.90;;;;;;6212759;23;20068;-81